Time;durP1;ratioP1;P1;durP2;ratioP2;P2;SDS_P1;SDS_P2;PMS_P1;PMS_P2;Temp;Humidity;BMP_temperature;BMP_pressure;BME280_temperature;BME280_humidity;BME280_pressure;Samples;Min_cycle;Max_cycle;Signal;HPM_P1;HPM_P2
2023/05/05 00:02:40;;;;;;;6.72;3.45;;;16.10;1.00;;;;;;20545540;28;20045;-41
2023/05/05 00:12:41;;;;;;;6.32;3.50;;;16.00;1.00;;;;;;20540512;28;20062;-41
2023/05/05 00:22:42;;;;;;;6.43;3.13;;;15.90;1.00;;;;;;20546384;28;20042;-41
2023/05/05 00:32:46;;;;;;;9.55;4.47;;;15.80;1.00;;;;;;20541383;28;20404;-41
2023/05/05 00:42:49;;;;;;;10.68;5.10;;;15.60;1.00;;;;;;20556482;28;20050;-41
2023/05/05 00:52:53;;;;;;;12.27;6.03;;;15.80;1.00;;;;;;20545409;28;20503;-41
2023/05/05 01:02:54;;;;;;;9.20;4.32;;;15.80;1.00;;;;;;20553240;28;20038;-42
2023/05/05 01:13:34;;;;;;;7.18;3.90;;;15.90;1.00;;;;;;20559477;28;20058;-42
2023/05/05 01:24:09;;;;;;;3.50;2.42;;;15.90;1.00;;;;;;20553108;28;20043;-41
2023/05/05 01:34:15;;;;;;;5.35;2.40;;;15.90;1.00;;;;;;20556723;28;20384;-41
2023/05/05 01:44:18;;;;;;;3.53;2.10;;;16.00;1.00;;;;;;20564438;28;20058;-41
2023/05/05 01:54:23;;;;;;;3.42;1.95;;;15.80;1.00;;;;;;20558464;28;20045;-41
2023/05/05 02:04:26;;;;;;;4.05;2.35;;;15.80;1.00;;;;;;20561424;28;20035;-41
2023/05/05 02:14:29;;;;;;;3.33;1.80;;;15.70;1.00;;;;;;20562844;28;20046;-41
2023/05/05 02:24:30;;;;;;;3.92;1.63;;;15.60;1.00;;;;;;20555019;28;20045;-41
2023/05/05 02:34:35;;;;;;;3.38;1.52;;;15.40;1.00;;;;;;20544336;28;20431;-42
2023/05/05 02:44:39;;;;;;;3.72;2.03;;;15.20;1.00;;;;;;20552688;28;20074;-42
2023/05/05 02:54:40;;;;;;;3.47;1.63;;;14.90;1.00;;;;;;20554742;28;20427;-42
2023/05/05 03:04:47;;;;;;;3.67;2.15;;;14.70;1.00;;;;;;20556235;28;20061;-41
2023/05/05 03:14:52;;;;;;;3.90;1.80;;;14.50;1.00;;;;;;20556263;28;20079;-41
2023/05/05 03:24:53;;;;;;;4.65;2.63;;;14.30;1.00;;;;;;20553945;28;20046;-41
2023/05/05 03:34:55;;;;;;;8.68;3.30;;;14.30;1.00;;;;;;20555944;28;20988;-42
2023/05/05 03:44:56;;;;;;;4.30;2.47;;;14.30;1.00;;;;;;20551621;28;20069;-42
2023/05/05 03:54:58;;;;;;;5.13;2.75;;;14.10;1.00;;;;;;20536268;28;20097;-42
2023/05/05 04:05:00;;;;;;;3.58;2.13;;;14.00;1.00;;;;;;20549566;28;20037;-42
2023/05/05 04:15:01;;;;;;;3.05;1.70;;;13.90;1.00;;;;;;20550950;28;20674;-42
2023/05/05 04:25:02;;;;;;;5.68;2.78;;;13.70;1.00;;;;;;20557764;28;20034;-42
2023/05/05 04:35:06;;;;;;;5.45;2.58;;;13.50;1.00;;;;;;20555352;28;20046;-40
2023/05/05 04:45:08;;;;;;;4.38;2.35;;;13.50;1.00;;;;;;20491008;28;20303;-41
2023/05/05 04:55:10;;;;;;;8.75;4.65;;;13.40;1.40;;;;;;20498076;28;20042;-41
2023/05/05 05:05:11;;;;;;;6.13;3.22;;;13.20;29.40;;;;;;20501449;28;20035;-41
2023/05/05 05:15:12;;;;;;;6.47;3.17;;;13.20;48.50;;;;;;20500501;28;20043;-40
2023/05/05 05:25:13;;;;;;;9.13;4.03;;;13.40;58.90;;;;;;20495349;28;20034;-41
2023/05/05 05:35:14;;;;;;;7.18;3.80;;;13.70;39.70;;;;;;20491786;28;20383;-41
2023/05/05 05:45:16;;;;;;;9.65;5.65;;;14.00;20.90;;;;;;20471288;28;20039;-41
2023/05/05 05:55:17;;;;;;;11.90;6.20;;;14.30;12.30;;;;;;20502516;28;20027;-41
2023/05/05 06:05:18;;;;;;;19.38;5.05;;;14.50;1.10;;;;;;20496784;28;20042;-41
2023/05/05 06:15:19;;;;;;;12.13;6.57;;;14.80;1.00;;;;;;20483568;28;20035;-41
2023/05/05 06:25:23;;;;;;;14.45;7.15;;;15.10;1.00;;;;;;20493081;28;20142;-41
2023/05/05 06:35:24;;;;;;;11.52;5.80;;;15.10;1.00;;;;;;20494552;28;20027;-41
2023/05/05 06:45:25;;;;;;;10.27;5.20;;;15.30;1.00;;;;;;20489027;28;20043;-41
2023/05/05 06:55:26;;;;;;;9.32;4.93;;;15.40;1.00;;;;;;20499260;28;20042;-41
2023/05/05 07:05:27;;;;;;;13.43;4.13;;;15.90;1.00;;;;;;20511998;28;20955;-41
2023/05/05 07:15:28;;;;;;;7.93;3.33;;;16.20;1.00;;;;;;20502232;28;20266;-41
2023/05/05 07:25:30;;;;;;;7.40;4.05;;;16.60;1.00;;;;;;20497712;28;20046;-41
2023/05/05 07:35:31;;;;;;;10.43;4.50;;;16.50;1.00;;;;;;20483073;28;20078;-41
2023/05/05 07:45:32;;;;;;;5.68;2.78;;;16.50;1.00;;;;;;20506854;28;20054;-41
2023/05/05 07:55:33;;;;;;;6.65;3.78;;;16.90;1.00;;;;;;20461746;28;20046;-41
2023/05/05 08:05:34;;;;;;;9.43;3.33;;;17.10;1.00;;;;;;20478431;28;20043;-41
2023/05/05 08:15:35;;;;;;;4.35;2.22;;;17.30;1.00;;;;;;20465597;28;20507;-41
2023/05/05 08:25:36;;;;;;;5.20;1.70;;;17.50;1.00;;;;;;20467190;28;20043;-41
2023/05/05 08:35:37;;;;;;;12.23;1.80;;;18.10;1.00;;;;;;20488022;28;20121;-41
2023/05/05 08:45:41;;;;;;;4.45;1.60;;;18.20;1.00;;;;;;20481027;28;20054;-41
2023/05/05 08:55:54;;;;;;;5.43;1.63;;;18.50;1.00;;;;;;20492727;28;20039;-39
2023/05/05 09:05:56;;;;;;;4.90;1.90;;;18.70;1.00;;;;;;20471476;28;20027;-39
2023/05/05 09:15:58;;;;;;;3.97;1.92;;;18.50;1.00;;;;;;20467550;28;20046;-41
2023/05/05 09:26:04;;;;;;;8.23;3.15;;;18.30;1.00;;;;;;20485157;28;20039;-39
2023/05/05 09:36:05;;;;;;;3.50;1.13;;;18.00;1.00;;;;;;20540463;28;20142;-41
2023/05/05 09:46:07;;;;;;;2.65;1.35;;;17.50;1.00;;;;;;20567314;28;20046;-40
2023/05/05 09:56:09;;;;;;;2.42;0.82;;;15.80;1.00;;;;;;20574239;28;20518;-41
2023/05/05 10:06:10;;;;;;;4.10;1.50;;;14.90;3.20;;;;;;20554837;28;20159;-41
2023/05/05 10:16:12;;;;;;;5.25;1.92;;;14.80;85.70;;;;;;20562637;28;20039;-41
2023/05/05 10:26:13;;;;;;;3.95;1.90;;;14.70;99.90;;;;;;20569164;28;20031;-41
2023/05/05 10:36:15;;;;;;;4.35;2.10;;;14.60;99.90;;;;;;20570862;28;20452;-41
2023/05/05 10:46:16;;;;;;;4.72;2.50;;;14.30;99.90;;;;;;20578710;28;20081;-42
2023/05/05 10:56:26;;;;;;;5.28;2.75;;;14.20;99.90;;;;;;20566040;28;20047;-41
2023/05/05 11:06:28;;;;;;;3.58;2.30;;;14.20;99.90;;;;;;20546662;28;20050;-41
2023/05/05 11:16:55;;;;;;;5.88;2.05;;;14.10;99.90;;;;;;20561589;28;20027;-41
2023/05/05 11:26:56;;;;;;;9.07;3.83;;;14.20;99.90;;;;;;20566123;28;20050;-41
2023/05/05 11:37:02;;;;;;;5.22;2.78;;;14.00;99.90;;;;;;20574736;28;20065;-42
2023/05/05 11:47:03;;;;;;;6.95;3.28;;;14.10;99.90;;;;;;20552775;28;20041;-41
2023/05/05 11:57:06;;;;;;;11.80;5.22;;;14.10;99.90;;;;;;20561945;28;20039;-42
2023/05/05 12:07:12;;;;;;;5.70;3.20;;;14.20;99.90;;;;;;20564311;28;20700;-42
2023/05/05 12:17:14;;;;;;;10.50;4.23;;;14.10;99.90;;;;;;20552462;28;20431;-42
2023/05/05 12:27:15;;;;;;;8.63;4.70;;;14.00;99.90;;;;;;20546086;28;20073;-41
2023/05/05 12:37:17;;;;;;;12.32;5.80;;;14.10;99.90;;;;;;20556527;28;20062;-41
2023/05/05 12:47:30;;;;;;;7.38;3.97;;;14.00;99.90;;;;;;20554779;28;20042;-41
2023/05/05 12:57:32;;;;;;;6.20;3.38;;;13.80;99.90;;;;;;20567474;28;20058;-42
2023/05/05 13:07:34;;;;;;;9.35;3.92;;;13.70;99.90;;;;;;20583496;28;20038;-42
2023/05/05 13:17:35;;;;;;;7.30;3.42;;;13.70;99.90;;;;;;20577725;28;20048;-41
2023/05/05 13:27:36;;;;;;;8.52;3.22;;;13.70;99.90;;;;;;20576912;28;20305;-41
2023/05/05 13:37:37;;;;;;;4.95;1.90;;;13.80;99.90;;;;;;20578797;28;20038;-41
2023/05/05 13:47:39;;;;;;;2.45;1.63;;;13.60;99.90;;;;;;20579312;28;20051;-43
2023/05/05 13:57:41;;;;;;;3.22;0.70;;;13.40;99.90;;;;;;20583567;28;20060;-42
2023/05/05 14:07:42;;;;;;;4.35;1.35;;;13.00;99.90;;;;;;20576986;28;20038;-42
2023/05/05 14:17:43;;;;;;;3.53;1.27;;;13.00;99.90;;;;;;20578594;28;20154;-42
2023/05/05 14:27:44;;;;;;;1.80;0.75;;;13.00;99.90;;;;;;20565576;28;20038;-41
2023/05/05 14:37:45;;;;;;;3.05;1.35;;;13.20;99.90;;;;;;20554487;28;20039;-41
2023/05/05 14:47:46;;;;;;;3.90;1.08;;;13.50;99.90;;;;;;20564018;28;20042;-41
2023/05/05 14:57:47;;;;;;;3.53;1.00;;;13.90;99.90;;;;;;20558136;28;20046;-42
2023/05/05 15:07:48;;;;;;;2.17;1.20;;;14.30;99.90;;;;;;20561161;28;20521;-41
2023/05/05 15:17:50;;;;;;;3.17;0.98;;;14.60;99.90;;;;;;20555736;28;20066;-42
2023/05/05 15:27:51;;;;;;;1.90;0.77;;;14.60;99.20;;;;;;20571576;28;20046;-42
2023/05/05 15:37:52;;;;;;;1.48;0.70;;;14.80;94.10;;;;;;20572258;28;20374;-42
2023/05/05 15:47:53;;;;;;;1.33;0.50;;;15.00;43.60;;;;;;20565109;28;20054;-42
2023/05/05 15:57:54;;;;;;;1.52;0.65;;;15.40;20.90;;;;;;20557541;28;20034;-42
2023/05/05 16:07:55;;;;;;;1.40;0.50;;;15.30;14.00;;;;;;20566074;28;20050;-42
2023/05/05 16:17:56;;;;;;;2.22;1.15;;;15.40;8.00;;;;;;20555354;28;20043;-42
2023/05/05 16:27:59;;;;;;;4.55;1.63;;;15.50;12.30;;;;;;20561947;28;20395;-42
2023/05/05 16:38:00;;;;;;;2.22;1.35;;;15.50;7.10;;;;;;20547143;28;20061;-42
2023/05/05 16:48:01;;;;;;;4.00;1.95;;;15.40;2.50;;;;;;20568324;28;20057;-42
2023/05/05 16:58:03;;;;;;;3.17;1.45;;;15.40;11.50;;;;;;20563658;28;20679;-42
2023/05/05 17:08:04;;;;;;;7.25;2.30;;;15.50;4.30;;;;;;20548255;28;20097;-42
2023/05/05 17:18:06;;;;;;;3.60;2.03;;;15.40;2.20;;;;;;20557148;28;20034;-42
2023/05/05 17:28:07;;;;;;;5.88;2.40;;;15.30;5.70;;;;;;20549526;28;20050;-42
2023/05/05 17:38:08;;;;;;;6.00;2.50;;;15.30;4.00;;;;;;20545455;28;20046;-42
2023/05/05 17:48:09;;;;;;;5.50;2.33;;;15.30;7.20;;;;;;20552721;28;20047;-42
2023/05/05 17:58:11;;;;;;;4.43;2.10;;;15.40;6.50;;;;;;20555599;28;20031;-42
2023/05/05 18:08:12;;;;;;;6.22;2.55;;;15.40;4.70;;;;;;20496902;28;20086;-42
2023/05/05 18:18:13;;;;;;;3.00;1.40;;;15.20;1.90;;;;;;20500365;28;20035;-42
2023/05/05 18:28:14;;;;;;;4.95;1.40;;;15.10;4.80;;;;;;20495819;28;20031;-42
2023/05/05 18:38:15;;;;;;;5.57;2.28;;;14.90;14.00;;;;;;20473729;28;20521;-42
2023/05/05 18:48:17;;;;;;;7.63;2.55;;;14.70;24.40;;;;;;20477426;28;20047;-42
2023/05/05 18:58:18;;;;;;;4.70;2.50;;;14.60;25.20;;;;;;20473983;28;20370;-42
2023/05/05 19:08:19;;;;;;;6.85;3.38;;;14.40;38.00;;;;;;20482893;28;20046;-43
2023/05/05 19:18:20;;;;;;;5.80;2.88;;;14.10;70.20;;;;;;20485110;28;20114;-42
2023/05/05 19:28:21;;;;;;;5.82;3.15;;;13.90;99.90;;;;;;20478679;28;20448;-42
2023/05/05 19:38:22;;;;;;;5.25;3.00;;;13.60;99.90;;;;;;20470935;28;20061;-42
2023/05/05 19:48:23;;;;;;;4.75;2.70;;;13.50;99.90;;;;;;20487571;28;20071;-42
2023/05/05 19:58:24;;;;;;;7.05;2.75;;;13.30;99.90;;;;;;20496378;28;20035;-42
2023/05/05 20:08:26;;;;;;;5.40;2.83;;;13.20;99.90;;;;;;20473109;28;20035;-42
2023/05/05 20:18:27;;;;;;;15.73;2.80;;;13.10;99.90;;;;;;20473174;28;20035;-42
2023/05/05 20:28:30;;;;;;;6.50;2.88;;;13.00;99.90;;;;;;20467501;28;20509;-42
2023/05/05 20:38:31;;;;;;;6.13;2.60;;;13.00;99.90;;;;;;20484685;28;20043;-42
2023/05/05 20:48:32;;;;;;;5.20;2.42;;;13.10;99.90;;;;;;20479541;28;20055;-42
2023/05/05 20:58:33;;;;;;;4.97;2.65;;;13.10;99.90;;;;;;20480328;28;20046;-42
2023/05/05 21:08:34;;;;;;;8.23;3.45;;;13.20;99.90;;;;;;20474591;28;20047;-42
2023/05/05 21:18:36;;;;;;;5.50;2.60;;;13.20;99.90;;;;;;20468289;28;20480;-42
2023/05/05 21:28:37;;;;;;;6.20;2.83;;;13.20;99.90;;;;;;20493436;28;20052;-42
2023/05/05 21:38:38;;;;;;;8.35;3.45;;;13.10;99.90;;;;;;20508038;28;20113;-42
2023/05/05 21:48:40;;;;;;;7.03;3.55;;;13.10;99.90;;;;;;20490352;28;20039;-42
2023/05/05 21:58:41;;;;;;;7.35;4.25;;;13.10;99.90;;;;;;20488300;28;20042;-42
2023/05/05 22:08:43;;;;;;;6.85;3.42;;;13.00;99.90;;;;;;20494113;28;20047;-42
2023/05/05 22:18:44;;;;;;;6.72;3.70;;;12.90;99.90;;;;;;20479403;28;20039;-42
2023/05/05 22:28:45;;;;;;;6.40;3.38;;;12.80;99.90;;;;;;20484829;28;20050;-42
2023/05/05 22:38:46;;;;;;;6.28;3.65;;;12.80;99.90;;;;;;20476927;28;20395;-42
2023/05/05 22:48:48;;;;;;;7.82;3.95;;;12.80;99.90;;;;;;20473746;28;20047;-42
2023/05/05 22:58:49;;;;;;;7.68;4.30;;;12.80;99.90;;;;;;20480716;28;20043;-42
2023/05/05 23:08:50;;;;;;;7.43;4.13;;;12.80;99.90;;;;;;20478412;28;20456;-42
2023/05/05 23:18:51;;;;;;;9.20;4.95;;;12.80;99.90;;;;;;20458545;28;21346;-42
2023/05/05 23:28:52;;;;;;;7.32;4.57;;;12.80;99.90;;;;;;20521848;28;20388;-42
2023/05/05 23:38:53;;;;;;;11.18;5.57;;;12.80;99.90;;;;;;20550641;28;20069;-42
2023/05/05 23:48:55;;;;;;;9.60;5.85;;;12.80;99.90;;;;;;20558378;28;20042;-42
2023/05/05 23:58:56;;;;;;;9.50;6.18;;;12.80;99.90;;;;;;20544095;28;20047;-42
